Airfield :
LOGIN :

Register | Disclaimer

   EN    FR    IT 

 










Legend :    VFR   Marginal VFR   IFR   Intensive IFR   Very Intensive IFR
Visi :
Ceiling :
>= 8 km
>= 3000ft
5 to 8 km
1000 to 3000 ft
1500m to 5 km
500 to 1000 ft
800 to 1500m
200 to 500 ft
< 800m
< 200 ft
Symbols :   Thunderstorms  Fog  Heavy snow  Heavy precipitations  Wind > 20 kt
SIGMETs :     Misc.  Thunderstorms  Icing  Turbulence  Mountain Waves  Volcanic Ashes






- Airport Elevation : 602 ft
- IATA code : NVS


LFQG - Nevers

CURRENT METAR :
  • 290900Z AUTO 04009KT 350V070 9999 FEW042 15/06 Q1015

EXPIRED METARs :
  • 290830Z AUTO 36009KT CAVOK 14/05 Q1015
  • 290800Z AUTO 02008KT 9999 FEW007 14/06 Q1015
  • 290730Z AUTO 01008KT 340V050 CAVOK 13/07 Q1015
  • 290700Z AUTO 02007KT 340V060 CAVOK 12/06 Q1015
  • 290630Z AUTO 02009KT 340V050 CAVOK 11/05 Q1015

TAF N/A



MET'MAP, your aeronautical weather chart ! - Copyright ORBIFLY December 2007 - Disclaimer

ORBIFLY MET'MAP TEAM :

Programming & Development : Alexandra Zaïnal
Original concept : Baudouin d'Aumeries
Technical & hardware support : Manuel Goepfert
Assistance : Marc-Olivier Méhu

Contact : metmap@orbifly.com




SOURCES & CREDITS :

   NOAA